createdAt,value
2023-01-19T00:00:16.202Z,215.04
2023-01-19T00:01:16.191Z,217.51
2023-01-19T00:02:16.245Z,221.54
2023-01-19T00:03:16.486Z,220.44
2023-01-19T00:04:16.336Z,217.15
2023-01-19T00:05:16.383Z,214.74
2023-01-19T00:06:16.628Z,210.33
2023-01-19T00:07:16.485Z,214.03
2023-01-19T00:08:16.559Z,213.47
2023-01-19T00:09:16.591Z,213.92
2023-01-19T00:10:16.633Z,220.82
2023-01-19T00:11:16.676Z,219.98
2023-01-19T00:12:16.729Z,226.61
2023-01-19T00:13:16.887Z,217.78
2023-01-19T00:14:16.820Z,213.03
2023-01-19T00:15:16.880Z,216.62
2023-01-19T00:16:16.944Z,216.22
2023-01-19T00:17:16.978Z,213.72
2023-01-19T00:18:17.032Z,211.47
2023-01-19T00:19:17.084Z,212.25
2023-01-19T00:20:17.210Z,214.77
2023-01-19T00:21:17.185Z,212.05
2023-01-19T00:22:17.237Z,210.96
2023-01-19T00:23:17.294Z,213.84
2023-01-19T00:24:18.096Z,213.95
2023-01-19T00:25:17.446Z,215.66
2023-01-19T00:26:17.606Z,211.63
2023-01-19T00:27:17.499Z,211.32
2023-01-19T00:28:17.549Z,209.10
2023-01-19T00:29:17.600Z,209.20
2023-01-19T00:30:17.648Z,208.72
2023-01-19T00:31:17.698Z,208.57
2023-01-19T00:32:17.780Z,214.73
2023-01-19T00:33:17.798Z,212.37
2023-01-19T00:34:17.853Z,217.17
2023-01-19T00:35:17.898Z,215.54
2023-01-19T00:36:18.098Z,216.97
2023-01-19T00:37:18.015Z,215.48
2023-01-19T00:38:18.074Z,219.63
2023-01-19T00:39:18.197Z,217.33
2023-01-19T00:40:18.217Z,209.06
2023-01-19T00:41:18.232Z,213.92
2023-01-19T00:42:18.260Z,210.44
2023-01-19T00:43:18.306Z,208.97
2023-01-19T00:44:18.358Z,207.68
2023-01-19T00:45:18.411Z,206.68
2023-01-19T00:46:18.456Z,208.52
2023-01-19T00:47:18.504Z,204.90
2023-01-19T00:48:18.562Z,207.50
2023-01-19T00:49:18.589Z,206.88
2023-01-19T00:50:18.629Z,204.00
2023-01-19T00:51:18.686Z,205.21
2023-01-19T00:52:18.727Z,209.12
2023-01-19T00:53:18.771Z,210.08
2023-01-19T00:54:18.819Z,206.85
2023-01-19T00:55:18.868Z,207.52
2023-01-19T00:56:18.917Z,207.81
2023-01-19T00:57:18.978Z,208.59
2023-01-19T00:58:19.022Z,210.22
2023-01-19T00:59:19.086Z,206.68
2023-01-19T01:00:19.128Z,211.56
2023-01-19T01:01:19.225Z,210.49
2023-01-19T01:02:19.374Z,210.08
2023-01-19T01:03:19.280Z,206.59
2023-01-19T01:04:19.286Z,207.52
2023-01-19T01:05:19.340Z,201.44
2023-01-19T01:06:19.383Z,204.11
2023-01-19T01:07:19.429Z,204.65
2023-01-19T01:08:19.473Z,203.40
2023-01-19T01:09:20.111Z,203.36
2023-01-19T01:10:19.612Z,202.23
2023-01-19T01:11:19.539Z,204.30
2023-01-19T01:12:19.598Z,204.68
2023-01-19T01:13:21.059Z,204.13
2023-01-19T01:14:19.831Z,203.22
2023-01-19T01:15:19.867Z,204.55
2023-01-19T01:16:20.008Z,207.03
2023-01-19T01:17:19.974Z,206.32
2023-01-19T01:18:20.065Z,201.72
2023-01-19T01:19:20.604Z,210.76
2023-01-19T01:20:20.094Z,210.63
2023-01-19T02:21:22.501Z,200.19
2023-01-19T02:22:22.545Z,198.38
2023-01-19T02:23:22.601Z,200.48
2023-01-19T02:24:22.632Z,199.30
2023-01-19T02:25:22.692Z,200.16
2023-01-19T02:26:22.717Z,202.07
2023-01-19T02:27:22.778Z,202.40
2023-01-19T02:28:23.635Z,201.99
2023-01-19T02:29:22.861Z,200.33
2023-01-19T02:30:22.981Z,199.41
2023-01-19T02:32:23.017Z,197.99
2023-01-19T02:33:23.138Z,195.29
2023-01-19T02:34:23.115Z,193.21
2023-01-19T02:36:23.185Z,190.08
2023-01-19T02:37:23.231Z,190.06
2023-01-19T03:18:25.670Z,193.00
2023-01-19T03:39:25.671Z,187.50
2023-01-19T03:52:25.527Z,182.83
2023-01-19T03:53:25.643Z,179.26
2023-01-19T03:54:25.621Z,177.52
2023-01-19T03:55:25.650Z,176.65
2023-01-19T03:56:25.681Z,175.79
2023-01-19T03:57:25.695Z,175.16
2023-01-19T03:58:25.725Z,172.15
2023-01-19T03:59:25.776Z,176.89
2023-01-19T04:00:25.821Z,177.53
2023-01-19T04:01:26.772Z,176.93
2023-01-19T04:02:25.933Z,176.77
2023-01-19T04:03:25.929Z,175.23
2023-01-19T04:04:26.163Z,172.61
2023-01-19T04:05:26.081Z,176.16
2023-01-19T04:06:26.055Z,173.30
2023-01-19T04:07:26.104Z,172.52
2023-01-19T04:08:26.159Z,173.27
2023-01-19T04:09:26.180Z,170.35
2023-01-19T04:10:26.227Z,171.39
2023-01-19T04:11:27.171Z,173.59
2023-01-19T04:12:26.308Z,171.87
2023-01-19T04:13:26.344Z,169.12
2023-01-19T04:14:26.379Z,172.50
2023-01-19T04:15:26.411Z,170.27
2023-01-19T04:16:26.441Z,171.18
2023-01-19T04:17:26.521Z,171.60
2023-01-19T04:18:26.497Z,169.85
2023-01-19T04:19:26.508Z,171.35
2023-01-19T04:20:26.520Z,172.10
2023-01-19T04:21:26.566Z,170.21
2023-01-19T04:22:26.574Z,169.72
2023-01-19T04:23:26.590Z,170.37
2023-01-19T04:30:26.735Z,167.91
2023-01-19T04:31:26.754Z,166.56
2023-01-19T04:32:26.773Z,164.17
2023-01-19T06:28:29.279Z,135.54
2023-01-19T07:20:29.201Z,157.79
2023-01-19T07:21:29.505Z,158.57
2023-01-19T07:22:29.212Z,156.68
2023-01-19T07:23:29.212Z,155.93
2023-01-19T07:25:36.309Z,156.79
2023-01-19T07:27:29.767Z,157.04
2023-01-19T07:28:29.168Z,157.05
2023-01-19T07:29:29.124Z,140.35
2023-01-19T07:30:29.250Z,124.72
2023-01-19T07:31:29.172Z,124.64
2023-01-19T07:32:29.074Z,131.53
2023-01-19T07:33:29.052Z,119.87
2023-01-19T07:34:29.098Z,109.61
2023-01-19T07:35:29.015Z,113.17
2023-01-19T07:36:28.985Z,113.28
2023-01-19T07:37:29.022Z,111.72
2023-01-19T07:38:28.968Z,108.92
2023-01-19T07:39:28.924Z,108.07
2023-01-19T07:40:28.926Z,104.97
2023-01-19T07:41:28.953Z,104.48
2023-01-19T07:42:28.879Z,105.21
2023-01-19T07:43:28.861Z,116.01
2023-01-19T07:44:28.852Z,103.29
2023-01-19T07:45:28.909Z,133.03
2023-01-19T07:46:28.960Z,127.41
2023-01-19T07:47:29.737Z,118.71
2023-01-19T07:48:28.774Z,118.44
2023-01-19T07:49:28.829Z,115.32
2023-01-19T07:50:28.727Z,112.80
2023-01-19T07:51:28.702Z,115.56
2023-01-19T07:52:28.705Z,117.37
2023-01-19T07:53:28.660Z,115.36
2023-01-19T07:54:28.655Z,115.27
2023-01-19T07:55:28.645Z,117.99
2023-01-19T07:56:28.667Z,117.38
2023-01-19T07:57:28.682Z,120.37
2023-01-19T07:58:28.692Z,119.11
2023-01-19T07:59:28.683Z,120.72
2023-01-19T08:00:28.642Z,115.41
2023-01-19T08:01:28.800Z,119.42
2023-01-19T08:02:28.645Z,118.66
2023-01-19T08:03:28.672Z,119.21
2023-01-19T08:04:28.732Z,116.21
2023-01-19T08:05:28.679Z,116.01
2023-01-19T08:06:28.736Z,117.70
2023-01-19T08:07:28.767Z,118.32
2023-01-19T08:08:28.809Z,120.09
2023-01-19T08:09:28.937Z,118.28
2023-01-19T08:10:28.934Z,115.27
2023-01-19T08:11:28.888Z,118.08
2023-01-19T08:12:28.899Z,115.61
2023-01-19T08:13:28.928Z,115.29
2023-01-19T08:14:28.903Z,117.75
2023-01-19T09:10:28.615Z,118.36
2023-01-19T09:11:28.589Z,119.08
2023-01-19T09:12:28.565Z,119.87
2023-01-19T09:13:28.569Z,118.40
2023-01-19T09:14:28.577Z,113.63
2023-01-19T09:15:28.569Z,115.21
2023-01-19T09:16:28.568Z,112.13
2023-01-19T09:17:28.588Z,109.29
2023-01-19T09:18:28.607Z,110.91
2023-01-19T09:19:28.639Z,108.26
2023-01-19T09:20:28.663Z,114.30
2023-01-19T09:21:28.695Z,113.57
2023-01-19T09:22:28.779Z,110.77
2023-01-19T09:23:28.690Z,68.29
2023-01-19T09:24:28.691Z,66.50
2023-01-19T09:25:28.704Z,91.77
2023-01-19T09:26:28.695Z,114.45
2023-01-19T09:27:28.712Z,109.58
2023-01-19T09:28:28.722Z,103.53
2023-01-19T09:29:28.734Z,100.98
2023-01-19T09:30:28.733Z,94.81
2023-01-19T09:31:29.392Z,94.92
2023-01-19T09:32:28.746Z,91.19
2023-01-19T09:33:28.749Z,89.86
2023-01-19T09:34:28.739Z,94.43
2023-01-19T09:35:28.740Z,88.48
2023-01-19T09:36:29.204Z,82.90
2023-01-19T09:37:28.723Z,82.24
2023-01-19T09:38:28.719Z,85.41
2023-01-19T09:39:28.727Z,85.11
2023-01-19T09:40:28.755Z,83.19
2023-01-19T09:41:28.704Z,83.14
2023-01-19T09:42:28.708Z,79.59
2023-01-19T09:43:28.687Z,73.16
2023-01-19T09:44:28.686Z,76.46
2023-01-19T09:45:28.685Z,75.88
2023-01-19T09:46:28.698Z,78.01
2023-01-19T09:47:28.721Z,71.39
2023-01-19T09:48:28.660Z,71.46
2023-01-19T09:49:28.634Z,71.37
2023-01-19T09:50:28.635Z,73.28
2023-01-19T09:51:28.602Z,75.69
2023-01-19T09:52:28.709Z,75.03
2023-01-19T09:53:28.546Z,74.57
2023-01-19T09:54:28.625Z,76.36
2023-01-19T09:55:28.561Z,77.00
2023-01-19T09:56:28.579Z,77.84
2023-01-19T09:57:28.621Z,76.97
2023-01-19T09:58:28.664Z,77.80
2023-01-19T09:59:28.698Z,77.67
2023-01-19T10:00:28.805Z,77.11
2023-01-19T10:01:28.891Z,76.13
2023-01-19T10:02:28.855Z,78.71
2023-01-19T10:03:28.939Z,79.18
2023-01-19T10:04:28.884Z,57.08
2023-01-19T10:05:29.856Z,60.26
2023-01-19T10:06:28.941Z,48.95
2023-01-19T10:07:28.944Z,50.57
2023-01-19T10:08:28.874Z,68.38
2023-01-19T10:09:28.904Z,51.61
2023-01-19T10:10:28.947Z,63.33
2023-01-19T10:11:34.475Z,75.10
2023-01-19T10:12:29.957Z,75.11
2023-01-19T10:13:28.954Z,63.75
2023-01-19T10:14:28.936Z,52.34
2023-01-19T10:15:28.937Z,61.92
2023-01-19T10:16:28.945Z,67.70
2023-01-19T10:17:28.876Z,31.71
2023-01-19T10:18:29.795Z,25.95
2023-01-19T10:19:28.926Z,47.67
2023-01-19T10:20:28.862Z,61.47
2023-01-19T10:21:28.877Z,58.79
2023-01-19T10:22:28.875Z,79.70
2023-01-19T10:23:28.923Z,84.36
2023-01-19T10:24:28.965Z,82.87
2023-01-19T10:26:28.980Z,73.80
2023-01-19T10:27:28.979Z,75.11
2023-01-19T10:28:29.023Z,81.00
2023-01-19T10:29:29.058Z,77.66
2023-01-19T10:30:29.102Z,81.84
2023-01-19T10:31:29.196Z,133.88
2023-01-19T10:32:29.075Z,157.16
2023-01-19T10:33:29.019Z,209.43
2023-01-19T10:34:29.015Z,240.71
2023-01-19T10:35:29.040Z,255.53
2023-01-19T10:36:29.059Z,250.00
2023-01-19T10:37:29.086Z,237.17
2023-01-19T10:38:29.100Z,230.47
2023-01-19T10:39:29.178Z,223.12
2023-01-19T10:40:29.123Z,221.20
2023-01-19T10:41:29.171Z,217.95
2023-01-19T10:42:29.230Z,212.63
2023-01-19T10:43:29.147Z,208.36
2023-01-19T10:44:29.161Z,206.28
2023-01-19T10:45:29.164Z,202.56
2023-01-19T10:46:29.314Z,201.77
2023-01-19T10:47:29.084Z,196.06
2023-01-19T10:48:29.094Z,195.26
2023-01-19T10:49:29.177Z,192.49
2023-01-19T10:50:29.065Z,190.52
2023-01-19T10:51:29.011Z,185.35
2023-01-19T10:52:28.972Z,183.39
2023-01-19T10:53:28.945Z,183.01
2023-01-19T10:54:28.966Z,180.91
2023-01-19T10:55:28.899Z,179.41
2023-01-19T10:56:28.898Z,175.92
2023-01-19T10:57:28.848Z,174.56
2023-01-19T10:58:28.811Z,172.18
2023-01-19T10:59:28.792Z,171.19
2023-01-19T11:07:28.620Z,160.32
2023-01-19T11:08:28.628Z,158.07
2023-01-19T11:09:28.616Z,155.97
2023-01-19T11:10:29.308Z,155.68
2023-01-19T11:12:28.597Z,147.78
2023-01-19T11:13:28.570Z,145.85
2023-01-19T11:14:28.572Z,145.46
2023-01-19T11:15:28.552Z,146.21
2023-01-19T11:16:28.564Z,144.87
2023-01-19T11:49:29.111Z,115.08
2023-01-19T11:50:29.099Z,115.78
2023-01-19T11:51:29.092Z,114.51
2023-01-19T11:52:29.070Z,114.02
2023-01-19T11:53:29.058Z,112.15
2023-01-19T11:54:29.038Z,112.30
2023-01-19T11:55:29.008Z,112.42
2023-01-19T11:56:29.021Z,111.57
2023-01-19T11:57:28.987Z,109.79
2023-01-19T11:58:28.953Z,108.69
2023-01-19T12:21:28.594Z,97.42
2023-01-19T12:22:28.609Z,96.65
2023-01-19T12:23:28.570Z,97.98
2023-01-19T12:24:28.607Z,97.04
2023-01-19T12:25:28.552Z,95.95
2023-01-19T12:26:28.554Z,93.97
2023-01-19T12:27:28.544Z,96.05
2023-01-19T12:28:28.541Z,94.08
2023-01-19T12:29:28.538Z,94.57
2023-01-19T12:30:28.601Z,92.89
2023-01-19T12:31:28.716Z,94.67
2023-01-19T12:32:28.515Z,91.90
2023-01-19T12:33:28.507Z,91.21
2023-01-19T12:34:28.521Z,93.08
2023-01-19T12:35:28.508Z,91.80
2023-01-19T12:36:28.533Z,90.65
2023-01-19T12:37:28.502Z,89.26
2023-01-19T12:38:28.873Z,90.83
2023-01-19T12:39:28.496Z,90.24
2023-01-19T12:40:28.483Z,87.23
2023-01-19T12:41:28.486Z,88.30
2023-01-19T12:42:28.524Z,89.85
2023-01-19T12:43:28.487Z,86.86
2023-01-19T12:44:28.480Z,87.49
2023-01-19T12:45:28.559Z,87.77
2023-01-19T13:12:28.341Z,77.31
2023-01-19T13:38:06.988Z,25.00
2023-01-19T13:39:07.017Z,25.68
2023-01-19T13:40:07.040Z,35.40
2023-01-19T13:41:07.032Z,39.30
2023-01-19T13:42:07.037Z,36.48
2023-01-19T13:43:07.126Z,34.60
2023-01-19T13:44:07.070Z,34.58
2023-01-19T13:46:07.122Z,32.12
2023-01-19T13:47:07.077Z,30.25
2023-01-19T13:48:07.091Z,30.93
2023-01-19T13:49:07.103Z,29.27
2023-01-19T13:50:07.244Z,29.05
2023-01-19T13:51:07.127Z,30.76
2023-01-19T13:52:07.418Z,27.22
2023-01-19T13:53:07.164Z,27.68
2023-01-19T13:54:07.207Z,43.20
2023-01-19T13:55:07.858Z,43.78
2023-01-19T13:56:07.196Z,39.86
2023-01-19T13:57:07.208Z,30.55
2023-01-19T13:58:07.256Z,30.24
2023-01-19T13:59:07.322Z,33.37
2023-01-19T14:00:07.241Z,31.97
2023-01-19T14:01:07.249Z,32.14
2023-01-19T14:02:07.376Z,32.17
2023-01-19T14:03:07.335Z,31.56
2023-01-19T14:04:07.278Z,29.91
2023-01-19T14:05:07.296Z,29.32
2023-01-19T14:06:07.339Z,32.87
2023-01-19T14:07:07.308Z,30.55
2023-01-19T14:08:07.316Z,27.82
2023-01-19T14:09:07.335Z,29.65
2023-01-19T14:10:07.765Z,30.72
2023-01-19T14:11:07.349Z,28.70
2023-01-19T14:12:07.375Z,29.14
2023-01-19T14:13:07.381Z,25.75
2023-01-19T14:14:07.369Z,31.60
2023-01-19T14:15:08.453Z,29.38
2023-01-19T14:16:07.430Z,29.50
2023-01-19T14:17:07.413Z,25.00
2023-01-19T14:18:07.417Z,27.39
2023-01-19T14:19:07.422Z,28.03
2023-01-19T14:20:07.497Z,30.92
2023-01-19T14:21:07.463Z,31.07
2023-01-19T14:22:07.446Z,31.17
2023-01-19T14:23:07.452Z,28.92
2023-01-19T14:24:07.497Z,27.38
2023-01-19T15:02:08.592Z,31.48
2023-01-19T15:06:07.900Z,30.04
2023-01-19T19:37:15.574Z,29.03
2023-01-19T19:38:15.577Z,27.43
2023-01-19T19:39:15.608Z,29.12
2023-01-19T19:40:15.700Z,29.25
2023-01-19T19:41:15.680Z,29.42
2023-01-19T19:42:15.726Z,27.77
2023-01-19T19:43:15.772Z,25.40
2023-01-19T19:44:15.813Z,31.58
2023-01-19T19:45:15.871Z,28.03
2023-01-19T19:46:15.970Z,29.60
2023-01-19T19:47:16.018Z,28.15
2023-01-19T19:48:16.215Z,29.16
2023-01-19T19:49:16.032Z,28.00
2023-01-19T19:50:16.069Z,31.39
2023-01-19T19:51:18.983Z,29.94
2023-01-19T19:52:16.115Z,30.78
2023-01-19T19:53:16.120Z,28.05
2023-01-19T19:54:16.125Z,30.14
2023-01-19T19:55:16.167Z,30.35
2023-01-19T19:56:16.172Z,30.06
2023-01-19T19:57:16.149Z,32.57
2023-01-19T19:58:16.155Z,28.56
2023-01-19T19:59:16.180Z,27.60
2023-01-19T20:00:16.205Z,28.51
2023-01-19T20:01:16.295Z,27.87
2023-01-19T20:02:16.200Z,25.35
2023-01-19T20:03:16.197Z,27.45
2023-01-19T20:04:16.216Z,30.30
2023-01-19T20:05:16.223Z,26.69
2023-01-19T20:06:16.212Z,29.62
2023-01-19T20:07:17.933Z,27.56
2023-01-19T20:08:16.222Z,30.47
2023-01-19T20:09:16.247Z,30.04
2023-01-19T20:10:16.246Z,29.63
2023-01-19T20:11:16.260Z,26.31
2023-01-19T20:12:16.244Z,27.04
2023-01-19T20:13:16.718Z,28.50
2023-01-19T20:14:16.378Z,28.53
2023-01-19T20:15:16.273Z,29.34
2023-01-19T20:16:16.345Z,27.63
2023-01-19T20:17:16.276Z,26.96
2023-01-19T20:18:16.297Z,27.75
2023-01-19T20:19:16.314Z,28.27
2023-01-19T20:20:16.305Z,29.71
2023-01-19T20:21:16.315Z,28.45
2023-01-19T20:22:16.318Z,26.94
2023-01-19T20:23:16.317Z,29.18
2023-01-19T20:24:16.322Z,29.27
2023-01-19T20:25:16.338Z,26.29
2023-01-19T20:26:16.377Z,28.88
2023-01-19T20:27:16.423Z,29.25
2023-01-19T20:28:16.539Z,29.38
2023-01-19T20:29:16.503Z,25.24
2023-01-19T20:30:16.617Z,26.78
2023-01-19T20:31:16.615Z,27.62
2023-01-19T20:32:16.655Z,28.72
2023-01-19T20:33:16.743Z,28.28
2023-01-19T20:34:16.762Z,29.75
2023-01-19T20:35:16.797Z,27.00
2023-01-19T20:36:16.833Z,27.74
2023-01-19T20:37:17.649Z,30.95
2023-01-19T20:38:16.962Z,28.63
2023-01-19T20:39:16.978Z,26.17
2023-01-19T20:40:18.009Z,28.66
2023-01-19T20:41:17.136Z,28.75
2023-01-19T20:42:17.233Z,28.06
2023-01-19T20:43:17.169Z,28.89
2023-01-19T20:44:17.226Z,27.25
2023-01-19T20:45:17.274Z,28.86
2023-01-19T20:46:17.313Z,28.97
2023-01-19T20:47:17.375Z,26.88
2023-01-19T20:48:17.461Z,29.65
2023-01-19T20:49:17.404Z,29.09
2023-01-19T20:50:17.404Z,27.68
2023-01-19T20:51:17.481Z,26.94
2023-01-19T20:52:17.423Z,26.91
2023-01-19T20:53:17.454Z,26.62
2023-01-19T20:54:17.484Z,31.96
2023-01-19T20:55:17.475Z,29.89
2023-01-19T20:56:17.531Z,29.09
2023-01-19T20:57:17.536Z,30.71
2023-01-19T20:58:17.571Z,27.70
2023-01-19T20:59:17.605Z,26.83
2023-01-19T21:00:17.615Z,31.48
2023-01-19T21:01:17.774Z,28.45
2023-01-19T21:02:17.681Z,28.26
2023-01-19T21:03:17.664Z,29.76
2023-01-19T21:04:17.676Z,27.53
2023-01-19T21:05:17.672Z,25.66
2023-01-19T21:06:17.675Z,25.27
2023-01-19T21:07:17.696Z,25.65
2023-01-19T21:08:17.686Z,29.14
2023-01-19T21:09:17.695Z,27.78
2023-01-19T21:10:17.705Z,28.89
2023-01-19T21:11:17.719Z,27.07
2023-01-19T21:12:17.733Z,28.44
2023-01-19T21:13:17.743Z,27.90
2023-01-19T21:14:17.845Z,29.80
2023-01-19T21:15:17.814Z,28.05
2023-01-19T21:16:17.807Z,27.62
2023-01-19T21:17:17.786Z,28.09
2023-01-19T21:18:17.801Z,29.28
2023-01-19T21:19:17.835Z,27.08
2023-01-19T21:20:17.835Z,30.04
2023-01-19T21:21:29.411Z,28.69
2023-01-19T21:22:18.839Z,28.80
2023-01-19T21:23:18.731Z,28.84
2023-01-19T21:24:17.839Z,26.25
2023-01-19T21:25:17.839Z,28.97
2023-01-19T21:26:17.840Z,30.30
2023-01-19T21:27:17.845Z,29.10
2023-01-19T21:28:17.838Z,27.24
2023-01-19T21:29:17.831Z,28.17
2023-01-19T21:30:17.856Z,30.17
2023-01-19T21:31:17.846Z,27.93
2023-01-19T21:32:17.848Z,29.61
2023-01-19T21:33:17.851Z,29.18
2023-01-19T21:34:17.871Z,28.05
2023-01-19T21:35:17.854Z,29.53
2023-01-19T21:36:17.877Z,29.04
2023-01-19T21:37:17.853Z,28.63
2023-01-19T21:38:17.866Z,27.10
2023-01-19T21:39:20.745Z,25.99
2023-01-19T21:40:17.876Z,30.90
2023-01-19T21:41:17.869Z,28.34
2023-01-19T21:42:17.871Z,29.04
2023-01-19T21:43:17.878Z,28.67
2023-01-19T21:44:17.898Z,29.51
2023-01-19T21:45:17.890Z,29.45
2023-01-19T21:46:17.904Z,27.18
2023-01-19T21:47:17.900Z,25.31
2023-01-19T21:48:17.910Z,29.09
2023-01-19T21:49:17.913Z,26.59
2023-01-19T21:50:17.929Z,27.93
2023-01-19T21:51:17.932Z,28.25
2023-01-19T21:52:17.926Z,29.29
2023-01-19T21:53:18.011Z,28.29
2023-01-19T21:54:17.942Z,29.99
2023-01-19T21:55:18.010Z,27.49
2023-01-19T21:56:17.963Z,28.34
2023-01-19T21:57:17.954Z,25.89
2023-01-19T21:58:17.973Z,30.99
2023-01-19T21:59:20.227Z,26.88
2023-01-19T22:00:17.985Z,27.13
2023-01-19T22:01:18.123Z,27.63
2023-01-19T22:02:29.843Z,27.11
2023-01-19T22:03:19.214Z,27.10
2023-01-19T22:04:18.127Z,27.42
2023-01-19T22:05:18.139Z,27.72
2023-01-19T22:06:18.141Z,27.35
2023-01-19T22:07:18.147Z,25.52
2023-01-19T22:08:18.155Z,27.71
2023-01-19T22:09:18.171Z,27.99
2023-01-19T22:10:18.158Z,26.45
2023-01-19T22:11:18.166Z,28.07
2023-01-19T22:12:18.176Z,27.16
2023-01-19T22:13:18.170Z,26.68
2023-01-19T22:14:18.753Z,27.79
2023-01-19T22:15:18.189Z,27.39
2023-01-19T22:16:18.234Z,26.46
2023-01-19T22:17:18.278Z,30.05
2023-01-19T22:18:18.233Z,26.79
2023-01-19T22:19:18.235Z,26.79
2023-01-19T22:20:18.282Z,29.05
2023-01-19T22:21:18.339Z,29.10
2023-01-19T22:22:18.295Z,28.24
2023-01-19T22:23:18.289Z,31.56
2023-01-19T22:24:18.307Z,30.88
2023-01-19T22:25:18.299Z,27.75
2023-01-19T22:26:18.315Z,28.24
2023-01-19T22:27:18.388Z,28.20
2023-01-19T22:28:18.349Z,28.67
2023-01-19T22:29:18.373Z,30.65
2023-01-19T22:30:19.427Z,28.36
2023-01-19T22:31:18.601Z,27.40
2023-01-19T22:32:18.430Z,26.46
2023-01-19T22:33:18.447Z,27.15
2023-01-19T22:34:18.471Z,28.64
2023-01-19T22:35:18.502Z,29.26
2023-01-19T22:36:18.528Z,30.04
2023-01-19T22:37:18.534Z,27.50
2023-01-19T22:38:18.577Z,28.54
2023-01-19T22:39:18.602Z,28.51
2023-01-19T22:40:18.598Z,25.03
2023-01-19T22:41:18.623Z,27.72
2023-01-19T22:42:18.636Z,30.48
2023-01-19T22:43:18.642Z,26.82
2023-01-19T22:44:18.664Z,29.48
2023-01-19T22:45:18.678Z,28.95
2023-01-19T22:46:18.798Z,28.13
2023-01-19T22:47:18.726Z,29.28
2023-01-19T22:48:18.728Z,31.43
2023-01-19T22:49:18.754Z,29.93
2023-01-19T22:50:18.748Z,28.02
2023-01-19T22:51:18.764Z,28.03
2023-01-19T22:52:18.772Z,29.92
2023-01-19T22:53:18.789Z,28.62
2023-01-19T22:54:18.801Z,28.56
2023-01-19T22:55:18.823Z,32.90
2023-01-19T22:56:18.856Z,28.80
2023-01-19T22:57:18.855Z,31.49
2023-01-19T22:58:18.872Z,29.75
2023-01-19T22:59:18.885Z,28.44
2023-01-19T23:00:18.895Z,29.56
2023-01-19T23:01:18.954Z,25.90
2023-01-19T23:02:20.799Z,30.54
2023-01-19T23:03:18.940Z,30.19
2023-01-19T23:04:18.952Z,28.29
2023-01-19T23:05:18.987Z,28.63
2023-01-19T23:06:18.997Z,27.35
2023-01-19T23:07:19.062Z,31.13
2023-01-19T23:08:19.004Z,30.80
2023-01-19T23:09:19.029Z,28.21
2023-01-19T23:10:19.035Z,26.27
2023-01-19T23:11:19.048Z,28.35
2023-01-19T23:12:19.079Z,27.89
2023-01-19T23:13:19.084Z,30.31
2023-01-19T23:14:19.111Z,27.52
2023-01-19T23:15:19.120Z,27.25
2023-01-19T23:16:19.158Z,28.23
2023-01-19T23:17:19.140Z,27.29
2023-01-19T23:18:19.159Z,30.55
2023-01-19T23:19:19.194Z,29.44
2023-01-19T23:20:19.184Z,28.98
2023-01-19T23:21:19.213Z,27.30
2023-01-19T23:22:19.217Z,26.43
2023-01-19T23:23:19.226Z,28.81
2023-01-19T23:24:19.229Z,26.16
2023-01-19T23:25:19.256Z,28.46
2023-01-19T23:26:19.248Z,33.77
2023-01-19T23:27:19.272Z,32.03
2023-01-19T23:28:19.296Z,27.54
2023-01-19T23:30:19.446Z,31.03
2023-01-19T23:31:19.391Z,27.87
2023-01-19T23:32:19.356Z,27.69
2023-01-19T23:33:19.369Z,29.68
2023-01-19T23:34:19.375Z,31.52
